Time;durP1;ratioP1;P1;durP2;ratioP2;P2;SDS_P1;SDS_P2;PMS_P1;PMS_P2;Temp;Humidity;BMP_temperature;BMP_pressure;BME280_temperature;BME280_humidity;BME280_pressure;Samples;Min_cycle;Max_cycle;Signal;HPM_P1;HPM_P2
2022/07/30 00:02:09;;;;;;;;;;;;;;;;;;4892433;29;20002;-58
2022/07/30 00:04:35;;;;;;;;;;;;;;;;;;4884468;29;20655;-58
2022/07/30 00:07:00;;;;;;;;;;;;;;;;;;4905707;29;19919;-58
2022/07/30 00:09:26;;;;;;;;;;;;;;;;;;4890747;29;19923;-58
2022/07/30 00:11:53;;;;;;;;;;;;;;;;;;4890899;29;19922;-59
2022/07/30 00:14:21;;;;;;;;;;;;;;;;;;4889493;29;19931;-59
2022/07/30 00:16:48;;;;;;;;;;;;;;;;;;4892163;29;19924;-58
2022/07/30 00:19:18;;;;;;;;;;;;;;;;;;4892740;29;19919;-58
2022/07/30 00:21:46;;;;;;;;;;;;;;;;;;4891804;29;19950;-58
2022/07/30 00:24:11;;;;;;;;;;;;;;;;;;4889505;29;21807;-59
2022/07/30 00:26:36;;;;;;;;;;;;;;;;;;4889182;29;21343;-58
2022/07/30 00:29:04;;;;;;;;;;;;;;;;;;4890508;29;20446;-59
2022/07/30 00:31:29;;;;;;;;;;;;;;;;;;4883812;29;19923;-58
2022/07/30 00:33:57;;;;;;;;;;;;;;;;;;4890209;29;19935;-58
2022/07/30 00:36:31;;;;;;;;;;;;;;;;;;4889196;29;20036;-59
2022/07/30 00:38:56;;;;;;;;;;;;;;;;;;4884535;29;20476;-59
2022/07/30 00:41:25;;;;;;;;;;;;;;;;;;4888892;29;19923;-59
2022/07/30 00:43:52;;;;;;;;;;;;;;;;;;4888204;29;19938;-58
2022/07/30 00:46:20;;;;;;;;;;;;;;;;;;4891497;29;19969;-59
2022/07/30 00:48:45;;;;;;;;;;;;;;;;;;4889490;29;20006;-58
2022/07/30 00:51:10;;;;;;;;;;;;;;;;;;4904185;29;20889;-57
2022/07/30 00:53:38;;;;;;;;;;;;;;;;;;4891099;29;19959;-58
2022/07/30 00:56:03;;;;;;;;;;;;;;;;;;4888693;29;21943;-58
2022/07/30 00:58:31;;;;;;;;;;;;;;;;;;4890705;29;21782;-58
2022/07/30 01:00:56;;;;;;;;;;;;;;;;;;4888605;29;19930;-58
2022/07/30 01:03:21;;;;;;;;;;;;;;;;;;4890566;29;19919;-58
2022/07/30 01:05:50;;;;;;;;;;;;;;;;;;4905763;29;19927;-59
2022/07/30 01:08:18;;;;;;;;;;;;;;;;;;4903015;29;19923;-58
2022/07/30 01:10:48;;;;;;;;;;;;;;;;;;4867574;29;19920;-59
2022/07/30 01:13:13;;;;;;;;;;;;;;;;;;4889116;29;20849;-59
2022/07/30 01:15:39;;;;;;;;;;;;;;;;;;4887993;29;19923;-59
2022/07/30 01:18:04;;;;;;;;;;;;;;;;;;4882583;29;19923;-59
2022/07/30 01:20:30;;;;;;;;;;;;;;;;;;4904064;29;19919;-59
2022/07/30 01:22:55;;;;;;;;;;;;;;;;;;4868909;29;19923;-59
2022/07/30 01:25:22;;;;;;;;;;;;;;;;;;4888508;29;19927;-58
2022/07/30 01:28:08;;;;;;;;;;;;;;;;;;5069396;27;19928;-58
2022/07/30 01:30:36;;;;;;;;;;;;;;;;;;5059988;28;19921;-59
2022/07/30 01:33:04;;;;;;;;;;;;;;;;;;5057206;28;19921;-59
2022/07/30 01:35:30;;;;;;;;;;;;;;;;;;5055138;28;19927;-59
2022/07/30 01:37:59;;;;;;;;;;;;;;;;;;5055250;28;19948;-59
2022/07/30 01:40:24;;;;;;;;;;;;;;;;;;5055407;28;20007;-58
2022/07/30 01:42:53;;;;;;;;;;;;;;;;;;5051722;28;19931;-58
2022/07/30 01:45:18;;;;;;;;;;;;;;;;;;5053406;28;19928;-58
2022/07/30 01:47:44;;;;;;;;;;;;;;;;;;5055451;28;19928;-58
2022/07/30 01:50:12;;;;;;;;;;;;;;;;;;5054709;28;20011;-58
2022/07/30 01:52:40;;;;;;;;;;;;;;;;;;5056373;28;19920;-58
2022/07/30 01:55:05;;;;;;;;;;;;;;;;;;5053915;28;19916;-60
2022/07/30 01:57:33;;;;;;;;;;;;;;;;;;5055692;28;20882;-58
2022/07/30 01:59:59;;;;;;;;;;;;;;;;;;5055216;28;19951;-58
2022/07/30 02:05:43;;;;;;;;;;;;;;;;;;5054161;28;19927;-58
2022/07/30 02:08:11;;;;;;;;;;;;;;;;;;5054628;28;19916;-58
2022/07/30 02:10:36;;;;;;;;;;;;;;;;;;5053227;28;19924;-58
2022/07/30 02:13:02;;;;;;;;;;;;;;;;;;5055466;28;19986;-58
2022/07/30 02:15:29;;;;;;;;;;;;;;;;;;5051764;28;19935;-58
2022/07/30 02:17:54;;;;;;;;;;;;;;;;;;5053447;28;19925;-58
2022/07/30 02:20:20;;;;;;;;;;;;;;;;;;5053394;28;19920;-58
2022/07/30 02:22:47;;;;;;;;;;;;;;;;;;5055108;28;19920;-58
2022/07/30 02:25:13;;;;;;;;;;;;;;;;;;5053923;28;19993;-58
2022/07/30 02:27:38;;;;;;;;;;;;;;;;;;5047853;28;20013;-59
2022/07/30 02:30:04;;;;;;;;;;;;;;;;;;5054135;28;19931;-59
2022/07/30 02:32:29;;;;;;;;;;;;;;;;;;5052116;28;19939;-59
2022/07/30 02:34:59;;;;;;;;;;;;;;;;;;5055472;28;19916;-58
2022/07/30 02:37:27;;;;;;;;;;;;;;;;;;5052432;28;19920;-58
2022/07/30 02:39:55;;;;;;;;;;;;;;;;;;5042304;28;20916;-59
2022/07/30 02:42:23;;;;;;;;;;;;;;;;;;5037412;28;19966;-59
2022/07/30 02:44:50;;;;;;;;;;;;;;;;;;5054158;28;19920;-59
2022/07/30 02:47:20;;;;;;;;;;;;;;;;;;5038194;28;20042;-59
2022/07/30 02:49:46;;;;;;;;;;;;;;;;;;5052585;28;19924;-59
2022/07/30 02:52:14;;;;;;;;;;;;;;;;;;5043579;28;19920;-59
2022/07/30 02:54:44;;;;;;;;;;;;;;;;;;5041426;28;19951;-59
2022/07/30 02:57:09;;;;;;;;;;;;;;;;;;5026133;28;20480;-59
2022/07/30 02:59:37;;;;;;;;;;;;;;;;;;5040889;28;19920;-58
2022/07/30 03:02:05;;;;;;;;;;;;;;;;;;5039043;28;19921;-58
2022/07/30 03:04:33;;;;;;;;;;;;;;;;;;5038959;28;19939;-57
2022/07/30 03:06:59;;;;;;;;;;;;;;;;;;5054957;28;19947;-59
2022/07/30 03:09:26;;;;;;;;;;;;;;;;;;5040642;28;19920;-59
2022/07/30 03:11:52;;;;;;;;;;;;;;;;;;5038712;28;19966;-58
2022/07/30 03:14:17;;;;;;;;;;;;;;;;;;5027485;28;20031;-59
2022/07/30 03:16:43;;;;;;;;;;;;;;;;;;5037112;28;19931;-58
2022/07/30 03:19:11;;;;;;;;;;;;;;;;;;5038916;28;20646;-59
2022/07/30 03:21:37;;;;;;;;;;;;;;;;;;5038498;28;19920;-58
2022/07/30 03:24:02;;;;;;;;;;;;;;;;;;5041773;28;21820;-58
2022/07/30 03:26:27;;;;;;;;;;;;;;;;;;5037703;28;19987;-58
2022/07/30 03:28:54;;;;;;;;;;;;;;;;;;5038070;28;19921;-59
2022/07/30 03:31:20;;;;;;;;;;;;;;;;;;5046078;28;19916;-58
2022/07/30 03:33:45;;;;;;;;;;;;;;;;;;5040489;28;19920;-59
2022/07/30 03:36:13;;;;;;;;;;;;;;;;;;5026897;28;20011;-58
2022/07/30 03:38:39;;;;;;;;;;;;;;;;;;5041030;28;19930;-59
2022/07/30 03:41:04;;;;;;;;;;;;;;;;;;5033411;28;19924;-59
2022/07/30 03:43:32;;;;;;;;;;;;;;;;;;5037854;28;19928;-58
2022/07/30 03:45:59;;;;;;;;;;;;;;;;;;5036033;28;19921;-60
2022/07/30 03:48:25;;;;;;;;;;;;;;;;;;5041035;28;19963;-58
2022/07/30 03:50:50;;;;;;;;;;;;;;;;;;5037774;28;20399;-59
2022/07/30 03:53:18;;;;;;;;;;;;;;;;;;5040551;28;19932;-58
2022/07/30 03:55:43;;;;;;;;;;;;;;;;;;5038929;28;19921;-59
2022/07/30 03:58:10;;;;;;;;;;;;;;;;;;5037536;28;20708;-58
2022/07/30 04:00:35;;;;;;;;;;;;;;;;;;5052851;28;19916;-58
2022/07/30 04:03:03;;;;;;;;;;;;;;;;;;5039567;28;19927;-58
2022/07/30 04:05:28;;;;;;;;;;;;;;;;;;5038906;28;19920;-59
2022/07/30 04:07:58;;;;;;;;;;;;;;;;;;5038183;28;20064;-58
2022/07/30 04:10:23;;;;;;;;;;;;;;;;;;5037136;28;20016;-59
2022/07/30 04:12:49;;;;;;;;;;;;;;;;;;5036950;28;19920;-59
2022/07/30 04:15:14;;;;;;;;;;;;;;;;;;5041417;28;19921;-59
2022/07/30 04:17:39;;;;;;;;;;;;;;;;;;5036403;28;19921;-59
2022/07/30 04:20:07;;;;;;;;;;;;;;;;;;5039033;28;20426;-59
2022/07/30 04:22:35;;;;;;;;;;;;;;;;;;5038716;28;19925;-58
2022/07/30 04:25:00;;;;;;;;;;;;;;;;;;5026325;28;19921;-58
2022/07/30 04:27:25;;;;;;;;;;;;;;;;;;5034420;28;19938;-59
2022/07/30 04:29:53;;;;;;;;;;;;;;;;;;5036040;28;19921;-59
2022/07/30 04:32:21;;;;;;;;;;;;;;;;;;5043812;28;19927;-58
2022/07/30 04:34:46;;;;;;;;;;;;;;;;;;5037692;28;19917;-59
2022/07/30 04:37:11;;;;;;;;;;;;;;;;;;5024420;28;19920;-58
2022/07/30 04:39:39;;;;;;;;;;;;;;;;;;5037549;28;19933;-58
2022/07/30 04:42:06;;;;;;;;;;;;;;;;;;5035625;28;19921;-59
2022/07/30 04:44:33;;;;;;;;;;;;;;;;;;5043957;28;19931;-58
2022/07/30 04:46:58;;;;;;;;;;;;;;;;;;5036584;28;19925;-59
2022/07/30 04:49:25;;;;;;;;;;;;;;;;;;5037038;28;19916;-59
2022/07/30 04:51:50;;;;;;;;;;;;;;;;;;5037124;28;20506;-58
2022/07/30 04:54:16;;;;;;;;;;;;;;;;;;5035441;28;20006;-59
2022/07/30 04:56:44;;;;;;;;;;;;;;;;;;5036683;28;20486;-57
2022/07/30 04:59:09;;;;;;;;;;;;;;;;;;5037613;28;19951;-58
2022/07/30 05:01:36;;;;;;;;;;;;;;;;;;5038284;28;19920;-58
2022/07/30 05:04:04;;;;;;;;;;;;;;;;;;5039009;28;20564;-65
2022/07/30 05:06:29;;;;;;;;;;;;;;;;;;5026748;28;19966;-58
2022/07/30 05:12:01;;;;;;;;;;;;;;;;;;5000762;28;20026;-58
2022/07/30 05:14:26;;;;;;;;;;;;;;;;;;5035089;28;19920;-59
2022/07/30 05:16:51;;;;;;;;;;;;;;;;;;5037652;28;19973;-58
2022/07/30 05:19:18;;;;;;;;;;;;;;;;;;5037938;28;19977;-59
2022/07/30 05:21:44;;;;;;;;;;;;;;;;;;5025083;28;20878;-59
2022/07/30 05:24:11;;;;;;;;;;;;;;;;;;5033465;28;19917;-59
2022/07/30 05:26:41;;;;;;;;;;;;;;;;;;5036101;28;19924;-59
2022/07/30 05:29:07;;;;;;;;;;;;;;;;;;5038092;28;20018;-59
2022/07/30 05:31:33;;;;;;;;;;;;;;;;;;5036249;28;20366;-60
2022/07/30 05:33:58;;;;;;;;;;;;;;;;;;5037024;28;20936;-59
2022/07/30 05:36:23;;;;;;;;;;;;;;;;;;5037366;28;19916;-59
2022/07/30 05:38:51;;;;;;;;;;;;;;;;;;5039179;28;19962;-59
2022/07/30 05:41:19;;;;;;;;;;;;;;;;;;5036714;28;19940;-59
2022/07/30 05:43:45;;;;;;;;;;;;;;;;;;5036612;28;19917;-59
2022/07/30 05:46:11;;;;;;;;;;;;;;;;;;5036731;28;19929;-59
2022/07/30 05:48:37;;;;;;;;;;;;;;;;;;5037129;28;19920;-60
2022/07/30 05:51:04;;;;;;;;;;;;;;;;;;5036974;28;19917;-59
2022/07/30 05:53:32;;;;;;;;;;;;;;;;;;5037291;28;19921;-59
2022/07/30 05:56:00;;;;;;;;;;;;;;;;;;5036541;28;19966;-59
2022/07/30 05:58:25;;;;;;;;;;;;;;;;;;5037193;28;20178;-60
2022/07/30 06:00:53;;;;;;;;;;;;;;;;;;5036123;28;19920;-60
2022/07/30 06:03:18;;;;;;;;;;;;;;;;;;5035454;28;20548;-59
2022/07/30 06:05:44;;;;;;;;;;;;;;;;;;5037481;28;19925;-60
2022/07/30 06:08:12;;;;;;;;;;;;;;;;;;5039629;28;20078;-59
2022/07/30 06:10:37;;;;;;;;;;;;;;;;;;5033846;28;19926;-60
2022/07/30 06:13:02;;;;;;;;;;;;;;;;;;5036300;28;19952;-60
2022/07/30 06:15:28;;;;;;;;;;;;;;;;;;5039604;28;19920;-59
2022/07/30 06:17:55;;;;;;;;;;;;;;;;;;5040566;28;20051;-60
2022/07/30 06:20:21;;;;;;;;;;;;;;;;;;5041963;28;19921;-58
2022/07/30 06:22:48;;;;;;;;;;;;;;;;;;5041685;28;19994;-58
2022/07/30 06:25:14;;;;;;;;;;;;;;;;;;5037590;28;19948;-59
2022/07/30 06:27:42;;;;;;;;;;;;;;;;;;5040041;28;20090;-59
2022/07/30 06:30:07;;;;;;;;;;;;;;;;;;5031554;28;19920;-60
2022/07/30 06:32:32;;;;;;;;;;;;;;;;;;5037922;28;21837;-60
2022/07/30 06:35:02;;;;;;;;;;;;;;;;;;5031480;28;19925;-61
2022/07/30 06:37:28;;;;;;;;;;;;;;;;;;5033329;28;19986;-60
2022/07/30 06:40:14;;;;;;;;;;;;;;;;;;5028448;28;19921;-60
2022/07/30 06:42:43;;;;;;;;;;;;;;;;;;5044009;28;21070;-60
2022/07/30 06:45:08;;;;;;;;;;;;;;;;;;5031214;28;19920;-60
2022/07/30 06:47:36;;;;;;;;;;;;;;;;;;5030593;28;20323;-61
2022/07/30 06:50:02;;;;;;;;;;;;;;;;;;5039507;28;19920;-62
2022/07/30 06:52:29;;;;;;;;;;;;;;;;;;5041339;28;20009;-62
2022/07/30 06:54:57;;;;;;;;;;;;;;;;;;5037748;28;19920;-60
2022/07/30 06:57:25;;;;;;;;;;;;;;;;;;5035562;28;19933;-62
2022/07/30 06:59:52;;;;;;;;;;;;;;;;;;5039912;28;20577;-60
2022/07/30 07:02:18;;;;;;;;;;;;;;;;;;5042070;28;19924;-62
2022/07/30 07:04:43;;;;;;;;;;;;;;;;;;5037841;28;19931;-61
2022/07/30 07:07:09;;;;;;;;;;;;;;;;;;5040737;28;19944;-61
2022/07/30 07:09:34;;;;;;;;;;;;;;;;;;5040737;28;20336;-61
2022/07/30 07:12:02;;;;;;;;;;;;;;;;;;5038907;28;20018;-62
2022/07/30 07:14:28;;;;;;;;;;;;;;;;;;5039839;28;20510;-62
2022/07/30 07:16:56;;;;;;;;;;;;;;;;;;5039247;28;20562;-59
2022/07/30 07:19:24;;;;;;;;;;;;;;;;;;5028159;28;19979;-62
2022/07/30 07:21:49;;;;;;;;;;;;;;;;;;5038508;28;21914;-61
2022/07/30 07:24:15;;;;;;;;;;;;;;;;;;5038433;28;19963;-61
2022/07/30 07:26:43;;;;;;;;;;;;;;;;;;5038787;28;19935;-60
2022/07/30 07:29:11;;;;;;;;;;;;;;;;;;5027114;28;19925;-61
2022/07/30 07:31:36;;;;;;;;;;;;;;;;;;5037791;28;19970;-61
2022/07/30 07:34:01;;;;;;;;;;;;;;;;;;5038059;28;20110;-61
2022/07/30 07:36:27;;;;;;;;;;;;;;;;;;5028631;28;19920;-60
2022/07/30 07:38:53;;;;;;;;;;;;;;;;;;5038473;28;19931;-60
2022/07/30 07:41:18;;;;;;;;;;;;;;;;;;5038309;28;20003;-61
2022/07/30 07:43:46;;;;;;;;;;;;;;;;;;5041412;28;19921;-61
2022/07/30 07:46:15;;;;;;;;;;;;;;;;;;5038426;28;19927;-60
2022/07/30 07:48:45;;;;;;;;;;;;;;;;;;5039878;28;19944;-60
2022/07/30 07:51:10;;;;;;;;;;;;;;;;;;5037584;28;19921;-60
2022/07/30 07:53:36;;;;;;;;;;;;;;;;;;5038678;28;19931;-60
2022/07/30 07:56:02;;;;;;;;;;;;;;;;;;5038634;28;19924;-62
2022/07/30 07:58:28;;;;;;;;;;;;;;;;;;5037127;28;20422;-61
2022/07/30 08:01:02;;;;;;;;;;;;;;;;;;5045934;28;19920;-59
2022/07/30 08:03:28;;;;;;;;;;;;;;;;;;5038909;28;19921;-60
2022/07/30 08:05:53;;;;;;;;;;;;;;;;;;5040993;28;19927;-62
2022/07/30 08:08:19;;;;;;;;;;;;;;;;;;5038833;28;19932;-61
2022/07/30 08:10:44;;;;;;;;;;;;;;;;;;5037961;28;20435;-60
2022/07/30 08:13:09;;;;;;;;;;;;;;;;;;5038316;28;19978;-61
2022/07/30 08:15:38;;;;;;;;;;;;;;;;;;5038939;28;19974;-61
2022/07/30 08:18:04;;;;;;;;;;;;;;;;;;5043646;28;19946;-62
2022/07/30 08:20:29;;;;;;;;;;;;;;;;;;5039221;28;19920;-61
2022/07/30 08:22:54;;;;;;;;;;;;;;;;;;5039761;28;19927;-62
2022/07/30 08:25:21;;;;;;;;;;;;;;;;;;5038631;28;20466;-62
2022/07/30 08:27:46;;;;;;;;;;;;;;;;;;5036108;28;19928;-60
2022/07/30 08:30:11;;;;;;;;;;;;;;;;;;5027633;28;20539;-60
2022/07/30 08:32:37;;;;;;;;;;;;;;;;;;5039211;28;19994;-59
2022/07/30 08:35:05;;;;;;;;;;;;;;;;;;5023535;28;19985;-60
2022/07/30 08:37:30;;;;;;;;;;;;;;;;;;5038737;28;19924;-61
2022/07/30 08:39:58;;;;;;;;;;;;;;;;;;5035881;28;20371;-59
2022/07/30 08:42:23;;;;;;;;;;;;;;;;;;5035715;28;19928;-61
2022/07/30 08:44:50;;;;;;;;;;;;;;;;;;5038613;28;19944;-62
2022/07/30 08:47:16;;;;;;;;;;;;;;;;;;5026876;28;21892;-62
2022/07/30 08:49:41;;;;;;;;;;;;;;;;;;5037648;28;19925;-61
2022/07/30 08:52:07;;;;;;;;;;;;;;;;;;5026430;28;20371;-61
2022/07/30 08:54:32;;;;;;;;;;;;;;;;;;5037514;28;19963;-58
2022/07/30 08:57:00;;;;;;;;;;;;;;;;;;5038636;28;19925;-60
2022/07/30 08:59:25;;;;;;;;;;;;;;;;;;5026093;28;19931;-61
2022/07/30 09:01:53;;;;;;;;;;;;;;;;;;5036158;28;19920;-60
2022/07/30 09:04:18;;;;;;;;;;;;;;;;;;5037671;28;20488;-59
2022/07/30 09:06:44;;;;;;;;;;;;;;;;;;5034406;28;20391;-61
2022/07/30 09:09:10;;;;;;;;;;;;;;;;;;5037613;28;20003;-60
2022/07/30 09:11:35;;;;;;;;;;;;;;;;;;5036479;28;19920;-59
2022/07/30 09:14:00;;;;;;;;;;;;;;;;;;5036373;28;20386;-61
2022/07/30 09:16:26;;;;;;;;;;;;;;;;;;5025757;28;19924;-62
2022/07/30 09:18:51;;;;;;;;;;;;;;;;;;5035584;28;20019;-61
2022/07/30 09:24:14;;;;;;;;;;;;;;;;;;5017055;28;21685;-60
2022/07/30 09:26:43;;;;;;;;;;;;;;;;;;5035438;28;20475;-60
2022/07/30 09:29:08;;;;;;;;;;;;;;;;;;5043333;28;19920;-61
2022/07/30 09:31:36;;;;;;;;;;;;;;;;;;5020820;28;19923;-61
2022/07/30 09:34:01;;;;;;;;;;;;;;;;;;5034013;28;20015;-61
2022/07/30 09:36:27;;;;;;;;;;;;;;;;;;5036248;28;19935;-61
2022/07/30 09:38:55;;;;;;;;;;;;;;;;;;5038164;28;20999;-61
2022/07/30 09:41:24;;;;;;;;;;;;;;;;;;5037049;28;19917;-61
2022/07/30 09:43:50;;;;;;;;;;;;;;;;;;5033967;28;19917;-61
2022/07/30 09:46:15;;;;;;;;;;;;;;;;;;5037789;28;19920;-61
2022/07/30 09:48:41;;;;;;;;;;;;;;;;;;5036202;28;19992;-60
2022/07/30 09:51:08;;;;;;;;;;;;;;;;;;5039507;28;20272;-60
2022/07/30 09:53:36;;;;;;;;;;;;;;;;;;5041631;28;19917;-61
2022/07/30 09:56:01;;;;;;;;;;;;;;;;;;5039449;28;19967;-62
2022/07/30 09:58:26;;;;;;;;;;;;;;;;;;5040598;28;20456;-62
2022/07/30 10:00:52;;;;;;;;;;;;;;;;;;5040949;28;19932;-61
2022/07/30 10:03:17;;;;;;;;;;;;;;;;;;5039965;28;19917;-60
2022/07/30 10:05:42;;;;;;;;;;;;;;;;;;5043325;28;19924;-59
2022/07/30 10:08:08;;;;;;;;;;;;;;;;;;5041246;28;20022;-60
2022/07/30 10:10:33;;;;;;;;;;;;;;;;;;5039545;28;19917;-61
2022/07/30 10:13:00;;;;;;;;;;;;;;;;;;5039113;28;19935;-60
2022/07/30 10:15:28;;;;;;;;;;;;;;;;;;5041134;28;20185;-62
2022/07/30 10:17:53;;;;;;;;;;;;;;;;;;5041178;28;19921;-61
2022/07/30 10:20:21;;;;;;;;;;;;;;;;;;5039678;28;19917;-60
2022/07/30 10:22:49;;;;;;;;;;;;;;;;;;5041256;28;19957;-60
2022/07/30 10:25:14;;;;;;;;;;;;;;;;;;5039555;28;20007;-61
2022/07/30 10:27:43;;;;;;;;;;;;;;;;;;5038816;28;19924;-61
2022/07/30 10:30:10;;;;;;;;;;;;;;;;;;5042310;28;19993;-61
2022/07/30 10:32:36;;;;;;;;;;;;;;;;;;5040289;28;19920;-60
2022/07/30 10:35:01;;;;;;;;;;;;;;;;;;5042286;28;20335;-60
2022/07/30 10:37:29;;;;;;;;;;;;;;;;;;5042416;28;19932;-61
2022/07/30 10:39:59;;;;;;;;;;;;;;;;;;5038627;28;19920;-59
2022/07/30 10:42:27;;;;;;;;;;;;;;;;;;5053654;28;19920;-60
2022/07/30 10:44:52;;;;;;;;;;;;;;;;;;5038106;28;19936;-61
2022/07/30 10:47:20;;;;;;;;;;;;;;;;;;5040589;28;20498;-61
2022/07/30 10:49:45;;;;;;;;;;;;;;;;;;5026443;28;21939;-60
2022/07/30 10:52:12;;;;;;;;;;;;;;;;;;5040096;28;19927;-60
2022/07/30 10:54:38;;;;;;;;;;;;;;;;;;5037830;28;19924;-59
2022/07/30 10:57:04;;;;;;;;;;;;;;;;;;5039856;28;19935;-60
2022/07/30 10:59:31;;;;;;;;;;;;;;;;;;5040198;28;19916;-60
2022/07/30 11:01:57;;;;;;;;;;;;;;;;;;5040291;28;19991;-59
2022/07/30 11:04:22;;;;;;;;;;;;;;;;;;5038972;28;20887;-60
2022/07/30 11:06:47;;;;;;;;;;;;;;;;;;5039451;28;19960;-60
2022/07/30 11:09:14;;;;;;;;;;;;;;;;;;5029846;28;19924;-60
2022/07/30 11:11:42;;;;;;;;;;;;;;;;;;5038281;28;20631;-60
2022/07/30 11:14:12;;;;;;;;;;;;;;;;;;5038653;28;19921;-61
2022/07/30 11:16:37;;;;;;;;;;;;;;;;;;5041042;28;19936;-60
2022/07/30 11:19:05;;;;;;;;;;;;;;;;;;5039527;28;19917;-60
2022/07/30 11:21:33;;;;;;;;;;;;;;;;;;5039732;28;20299;-60
2022/07/30 11:24:01;;;;;;;;;;;;;;;;;;5038756;28;20027;-59
2022/07/30 11:26:26;;;;;;;;;;;;;;;;;;5040227;28;19927;-60
2022/07/30 11:28:51;;;;;;;;;;;;;;;;;;5039421;28;20023;-60
2022/07/30 11:31:19;;;;;;;;;;;;;;;;;;5040663;28;20700;-58
2022/07/30 11:33:47;;;;;;;;;;;;;;;;;;5019693;28;19924;-58
2022/07/30 11:36:12;;;;;;;;;;;;;;;;;;5038509;28;19916;-60
2022/07/30 11:38:37;;;;;;;;;;;;;;;;;;5039426;28;19927;-60
2022/07/30 11:41:05;;;;;;;;;;;;;;;;;;5037937;28;19920;-61
2022/07/30 11:43:40;;;;;;;;;;;;;;;;;;5039203;28;20654;-61
2022/07/30 11:46:05;;;;;;;;;;;;;;;;;;5028542;28;19921;-61
2022/07/30 11:48:33;;;;;;;;;;;;;;;;;;5039401;28;20471;-61
2022/07/30 11:50:58;;;;;;;;;;;;;;;;;;5038164;28;19916;-61
2022/07/30 11:53:23;;;;;;;;;;;;;;;;;;5038316;28;19932;-61
2022/07/30 11:55:49;;;;;;;;;;;;;;;;;;5036492;28;19938;-60
2022/07/30 11:58:17;;;;;;;;;;;;;;;;;;5039257;28;19959;-58
2022/07/30 12:00:49;;;;;;;;;;;;;;;;;;5037405;28;20034;-60
2022/07/30 12:03:14;;;;;;;;;;;;;;;;;;5039932;28;22126;-59
2022/07/30 12:05:40;;;;;;;;;;;;;;;;;;5039300;28;19916;-59
2022/07/30 12:08:08;;;;;;;;;;;;;;;;;;5037477;28;19921;-59
2022/07/30 12:10:34;;;;;;;;;;;;;;;;;;5036609;28;19920;-59
2022/07/30 12:13:00;;;;;;;;;;;;;;;;;;5038464;28;19921;-59
2022/07/30 12:15:27;;;;;;;;;;;;;;;;;;5038940;28;19917;-59
2022/07/30 12:17:53;;;;;;;;;;;;;;;;;;5036177;28;19975;-60
2022/07/30 12:20:18;;;;;;;;;;;;;;;;;;5037622;28;20275;-59
2022/07/30 12:22:43;;;;;;;;;;;;;;;;;;5026863;28;19927;-59
2022/07/30 12:25:08;;;;;;;;;;;;;;;;;;5038089;28;19928;-61
2022/07/30 12:27:34;;;;;;;;;;;;;;;;;;5036698;28;20311;-61
2022/07/30 12:29:59;;;;;;;;;;;;;;;;;;5037994;28;19927;-60
2022/07/30 12:32:24;;;;;;;;;;;;;;;;;;5037647;28;19921;-60
2022/07/30 12:34:49;;;;;;;;;;;;;;;;;;5034309;28;20384;-61
2022/07/30 12:37:17;;;;;;;;;;;;;;;;;;5038170;28;19928;-61
2022/07/30 12:39:44;;;;;;;;;;;;;;;;;;5037496;28;19924;-61
2022/07/30 12:42:09;;;;;;;;;;;;;;;;;;5038722;28;21377;-62
2022/07/30 12:44:37;;;;;;;;;;;;;;;;;;5038918;28;21745;-58
2022/07/30 12:47:04;;;;;;;;;;;;;;;;;;5039443;28;19923;-59
2022/07/30 12:49:30;;;;;;;;;;;;;;;;;;5036119;28;19923;-61
2022/07/30 12:51:55;;;;;;;;;;;;;;;;;;5037286;28;19921;-59
2022/07/30 12:54:21;;;;;;;;;;;;;;;;;;5027135;28;19960;-60
2022/07/30 12:56:46;;;;;;;;;;;;;;;;;;5037536;28;19925;-61
2022/07/30 12:59:14;;;;;;;;;;;;;;;;;;5036222;28;19935;-62
2022/07/30 13:01:40;;;;;;;;;;;;;;;;;;5038104;28;20511;-61
2022/07/30 13:04:05;;;;;;;;;;;;;;;;;;5028306;28;20647;-59
2022/07/30 13:06:33;;;;;;;;;;;;;;;;;;5036129;28;19921;-59
2022/07/30 13:09:01;;;;;;;;;;;;;;;;;;5037798;28;19999;-60
2022/07/30 13:11:26;;;;;;;;;;;;;;;;;;5038449;28;19920;-61
2022/07/30 13:13:51;;;;;;;;;;;;;;;;;;5038155;28;19923;-60
2022/07/30 13:16:17;;;;;;;;;;;;;;;;;;5036190;28;19924;-60
2022/07/30 13:18:42;;;;;;;;;;;;;;;;;;5033013;28;19923;-60
2022/07/30 13:21:08;;;;;;;;;;;;;;;;;;5038276;28;20946;-60
2022/07/30 13:23:34;;;;;;;;;;;;;;;;;;5036747;28;19916;-60
2022/07/30 13:25:59;;;;;;;;;;;;;;;;;;5026874;28;20361;-60
2022/07/30 13:28:27;;;;;;;;;;;;;;;;;;5038615;28;19943;-60
2022/07/30 13:30:52;;;;;;;;;;;;;;;;;;5036391;28;19921;-61
2022/07/30 13:33:22;;;;;;;;;;;;;;;;;;5037475;28;20577;-59
2022/07/30 13:35:47;;;;;;;;;;;;;;;;;;5036365;28;19920;-61
2022/07/30 13:38:12;;;;;;;;;;;;;;;;;;5035520;28;19924;-60
2022/07/30 13:40:40;;;;;;;;;;;;;;;;;;5038561;28;19916;-60
2022/07/30 13:43:05;;;;;;;;;;;;;;;;;;5035636;28;19931;-59
2022/07/30 13:45:31;;;;;;;;;;;;;;;;;;5039444;28;19916;-60
2022/07/30 13:47:59;;;;;;;;;;;;;;;;;;5037060;28;19997;-59
2022/07/30 13:50:26;;;;;;;;;;;;;;;;;;5025511;28;19917;-61
2022/07/30 13:52:52;;;;;;;;;;;;;;;;;;5036134;28;20302;-58
2022/07/30 13:55:17;;;;;;;;;;;;;;;;;;5034867;28;19931;-60
2022/07/30 13:57:42;;;;;;;;;;;;;;;;;;5038081;28;19960;-60
2022/07/30 14:00:08;;;;;;;;;;;;;;;;;;5036486;28;20538;-61
2022/07/30 14:02:35;;;;;;;;;;;;;;;;;;5032760;28;20919;-59
2022/07/30 14:05:07;;;;;;;;;;;;;;;;;;5036898;28;19925;-59
2022/07/30 14:07:34;;;;;;;;;;;;;;;;;;5037387;28;20007;-59
2022/07/30 14:10:00;;;;;;;;;;;;;;;;;;5037775;28;21818;-59
2022/07/30 14:12:25;;;;;;;;;;;;;;;;;;5036555;28;20039;-59
2022/07/30 14:14:53;;;;;;;;;;;;;;;;;;5037880;28;20094;-60
2022/07/30 14:17:18;;;;;;;;;;;;;;;;;;5039111;28;20175;-60
2022/07/30 14:19:46;;;;;;;;;;;;;;;;;;5037903;28;20716;-59
2022/07/30 14:22:11;;;;;;;;;;;;;;;;;;5034781;28;20474;-61
2022/07/30 14:24:39;;;;;;;;;;;;;;;;;;5037365;28;20848;-60
2022/07/30 14:27:09;;;;;;;;;;;;;;;;;;5019327;28;20007;-60
2022/07/30 14:29:37;;;;;;;;;;;;;;;;;;5038513;28;19920;-61
2022/07/30 14:32:05;;;;;;;;;;;;;;;;;;5033962;28;20299;-60
2022/07/30 14:34:30;;;;;;;;;;;;;;;;;;5037557;28;19916;-61
2022/07/30 14:36:56;;;;;;;;;;;;;;;;;;5040945;28;19940;-61
2022/07/30 14:39:21;;;;;;;;;;;;;;;;;;5037793;28;19921;-61
2022/07/30 14:41:46;;;;;;;;;;;;;;;;;;5035511;28;19921;-60
2022/07/30 14:44:12;;;;;;;;;;;;;;;;;;5038101;28;19921;-59
2022/07/30 14:46:38;;;;;;;;;;;;;;;;;;5040840;28;19924;-60
2022/07/30 14:49:07;;;;;;;;;;;;;;;;;;5037732;28;20404;-59
2022/07/30 14:51:33;;;;;;;;;;;;;;;;;;5025049;28;19924;-57
2022/07/30 14:54:00;;;;;;;;;;;;;;;;;;5037927;28;21910;-59
2022/07/30 14:56:28;;;;;;;;;;;;;;;;;;5034308;28;19924;-59
2022/07/30 14:58:57;;;;;;;;;;;;;;;;;;5040785;28;19936;-60
2022/07/30 15:01:25;;;;;;;;;;;;;;;;;;5041239;28;19923;-58
2022/07/30 15:03:50;;;;;;;;;;;;;;;;;;5037845;28;20399;-60
2022/07/30 15:06:16;;;;;;;;;;;;;;;;;;5040434;28;20054;-59
2022/07/30 15:08:41;;;;;;;;;;;;;;;;;;5038202;28;20010;-59
2022/07/30 15:11:09;;;;;;;;;;;;;;;;;;5040953;28;19916;-59
2022/07/30 15:13:36;;;;;;;;;;;;;;;;;;5053750;28;19928;-59
2022/07/30 15:16:02;;;;;;;;;;;;;;;;;;5037786;28;19924;-60
2022/07/30 15:18:31;;;;;;;;;;;;;;;;;;5037615;28;20030;-60
2022/07/30 15:20:57;;;;;;;;;;;;;;;;;;5037216;28;19928;-60
2022/07/30 15:23:25;;;;;;;;;;;;;;;;;;5037897;28;19921;-59
2022/07/30 15:25:50;;;;;;;;;;;;;;;;;;5037095;28;19936;-58
2022/07/30 15:28:18;;;;;;;;;;;;;;;;;;5037755;28;19932;-59
2022/07/30 15:30:43;;;;;;;;;;;;;;;;;;5040487;28;19928;-59
2022/07/30 15:33:11;;;;;;;;;;;;;;;;;;5039209;28;19920;-59
2022/07/30 15:35:36;;;;;;;;;;;;;;;;;;5044370;28;19928;-61
2022/07/30 15:38:02;;;;;;;;;;;;;;;;;;5039905;28;19924;-60
2022/07/30 15:40:27;;;;;;;;;;;;;;;;;;5024545;28;19924;-59
2022/07/30 15:42:52;;;;;;;;;;;;;;;;;;5037267;28;19921;-59
2022/07/30 15:45:22;;;;;;;;;;;;;;;;;;5038712;28;19925;-60
2022/07/30 15:47:47;;;;;;;;;;;;;;;;;;5039538;28;20017;-60
2022/07/30 15:50:16;;;;;;;;;;;;;;;;;;5029537;28;19955;-60
2022/07/30 15:52:41;;;;;;;;;;;;;;;;;;5034417;28;19921;-59
2022/07/30 15:55:08;;;;;;;;;;;;;;;;;;5038148;28;21012;-60
2022/07/30 15:57:34;;;;;;;;;;;;;;;;;;5045136;28;19932;-58
2022/07/30 16:00:01;;;;;;;;;;;;;;;;;;5035775;28;20001;-58
2022/07/30 16:02:29;;;;;;;;;;;;;;;;;;5038171;28;19967;-58
2022/07/30 16:04:54;;;;;;;;;;;;;;;;;;5037125;28;19925;-58
2022/07/30 16:07:20;;;;;;;;;;;;;;;;;;5029299;28;19928;-58
2022/07/30 16:09:45;;;;;;;;;;;;;;;;;;5039526;28;20555;-59
2022/07/30 16:12:10;;;;;;;;;;;;;;;;;;5023512;28;19920;-58
2022/07/30 16:14:39;;;;;;;;;;;;;;;;;;5035665;28;19920;-59
2022/07/30 16:17:06;;;;;;;;;;;;;;;;;;5040358;28;19931;-59
2022/07/30 16:19:34;;;;;;;;;;;;;;;;;;5038462;28;19928;-59
2022/07/30 16:22:00;;;;;;;;;;;;;;;;;;5040062;28;19921;-58
2022/07/30 16:24:25;;;;;;;;;;;;;;;;;;5028829;28;19987;-59
2022/07/30 16:26:50;;;;;;;;;;;;;;;;;;5022660;28;19932;-59
2022/07/30 16:29:16;;;;;;;;;;;;;;;;;;5039440;28;19924;-59
2022/07/30 16:31:46;;;;;;;;;;;;;;;;;;5038285;28;19920;-59
2022/07/30 16:34:12;;;;;;;;;;;;;;;;;;5038860;28;19966;-58
2022/07/30 16:36:37;;;;;;;;;;;;;;;;;;5037722;28;20016;-60
2022/07/30 16:39:04;;;;;;;;;;;;;;;;;;5045435;28;19975;-59
2022/07/30 16:41:30;;;;;;;;;;;;;;;;;;5033972;28;19925;-60
2022/07/30 16:43:55;;;;;;;;;;;;;;;;;;5023563;28;21805;-59
2022/07/30 16:46:23;;;;;;;;;;;;;;;;;;5042194;28;19925;-60
2022/07/30 16:48:51;;;;;;;;;;;;;;;;;;5037296;28;19920;-60
2022/07/30 16:51:19;;;;;;;;;;;;;;;;;;5037456;28;19999;-60